createdAt,value
2023-02-08T00:09:47.153Z,102648.48
2023-02-08T00:19:50.893Z,102652.46
2023-02-08T00:30:08.689Z,102651.44
2023-02-08T00:40:15.198Z,102651.25
2023-02-08T00:50:22.234Z,102642.09
2023-02-08T01:00:29.194Z,102633.30
2023-02-08T01:10:38.527Z,102629.83
2023-02-08T01:20:42.461Z,102640.71
2023-02-08T01:30:46.517Z,102647.80
2023-02-08T01:40:50.441Z,102648.82
2023-02-08T01:51:03.419Z,102645.54
2023-02-08T02:01:08.557Z,102646.54
2023-02-08T02:11:13.437Z,102640.33
2023-02-08T02:21:25.492Z,102648.64
2023-02-08T02:31:52.768Z,102652.23
2023-02-08T02:42:49.789Z,102643.41
2023-02-08T02:53:03.317Z,102653.38
2023-02-08T03:03:08.313Z,102661.67
2023-02-08T03:13:31.688Z,102683.95
2023-02-08T03:23:52.107Z,102702.23
2023-02-08T03:34:03.895Z,102700.02
2023-02-08T03:44:15.172Z,102704.63
2023-02-08T03:54:25.235Z,102717.04
2023-02-08T04:04:41.394Z,102725.65
2023-02-08T04:14:45.301Z,102731.14
2023-02-08T04:24:49.025Z,102734.27
2023-02-08T04:34:53.686Z,102744.64
2023-02-08T04:44:57.472Z,102744.15
2023-02-08T04:55:01.254Z,102739.51
2023-02-08T05:05:05.552Z,102747.27
2023-02-08T05:15:09.964Z,102748.13
2023-02-08T05:25:13.887Z,102743.73
2023-02-08T05:35:17.771Z,102751.09
2023-02-08T05:45:21.437Z,102757.75
2023-02-08T05:55:27.311Z,102770.48
2023-02-08T06:05:31.290Z,102771.85
2023-02-08T06:15:35.015Z,102780.17
2023-02-08T06:25:39.756Z,102787.84
2023-02-08T06:35:48.068Z,102797.04
2023-02-08T06:45:51.888Z,102799.88
2023-02-08T06:55:55.743Z,102806.51
2023-02-08T07:06:04.919Z,102809.88
2023-02-08T07:16:10.364Z,102806.89
2023-02-08T07:26:17.437Z,102820.05
2023-02-08T07:36:23.227Z,102818.51
2023-02-08T07:46:26.899Z,102810.38
2023-02-08T07:56:30.810Z,102809.98
2023-02-08T08:06:38.159Z,102807.80
2023-02-08T08:16:44.062Z,102809.34
2023-02-08T08:26:47.645Z,102816.30
2023-02-08T08:36:51.183Z,102832.95
2023-02-08T08:46:57.854Z,102837.52
2023-02-08T08:57:02.343Z,102831.04
2023-02-08T09:07:07.216Z,102829.81
2023-02-08T09:17:12.770Z,102820.96
2023-02-08T09:27:19.155Z,102820.13
2023-02-08T09:37:25.668Z,102820.04
2023-02-08T09:47:35.912Z,102826.81
2023-02-08T09:57:39.795Z,102833.05
2023-02-08T10:07:43.662Z,102821.14
2023-02-08T10:18:08.043Z,102830.85
2023-02-08T10:28:53.718Z,102828.09
2023-02-08T10:38:59.477Z,102811.48
2023-02-08T10:49:21.815Z,102786.03
2023-02-08T10:59:49.779Z,102784.48
2023-02-08T11:09:54.754Z,102776.52
2023-02-08T11:20:01.963Z,102775.13
2023-02-08T11:30:14.972Z,102774.95
2023-02-08T11:40:24.588Z,102766.48
2023-02-08T11:50:38.663Z,102769.06
2023-02-08T12:00:57.399Z,102764.23
2023-02-08T12:11:12.733Z,102757.97
2023-02-08T12:21:29.707Z,102763.49
2023-02-08T12:31:51.627Z,102755.68
2023-02-08T12:42:01.092Z,102750.83
2023-02-08T13:04:41.004Z,102745.98
2023-02-08T13:15:11.939Z,102739.21
2023-02-08T13:25:36.199Z,102729.17
2023-02-08T13:35:42.655Z,102735.63
2023-02-08T13:45:54.004Z,102724.57
2023-02-08T13:56:00.437Z,102719.89
2023-02-08T14:06:07.999Z,102708.98
2023-02-08T14:16:30.054Z,102714.90
2023-02-08T14:26:38.509Z,102704.19
2023-02-08T14:36:43.254Z,102696.76
2023-02-08T14:46:47.782Z,102703.86
2023-02-08T14:57:02.768Z,102706.61
2023-02-08T15:07:33.677Z,102706.27
2023-02-08T15:17:43.914Z,102707.45
2023-02-08T15:27:51.030Z,102705.86
2023-02-08T15:37:56.280Z,102707.01
2023-02-08T15:48:02.485Z,102698.30
2023-02-08T15:58:28.747Z,102689.58
2023-02-08T16:08:36.394Z,102691.73
2023-02-08T16:18:44.406Z,102688.71
2023-02-08T16:29:40.904Z,102691.03
2023-02-08T16:39:52.477Z,102680.42
2023-02-08T16:49:56.122Z,102670.37
2023-02-08T17:00:01.924Z,102667.36
2023-02-08T17:10:08.546Z,102667.14
2023-02-08T17:20:36.337Z,102672.08
2023-02-08T17:30:44.738Z,102667.67
2023-02-08T17:40:49.456Z,102670.88
2023-02-08T17:50:53.889Z,102662.41
2023-02-08T18:00:57.622Z,102660.88
2023-02-08T18:11:12.786Z,102661.73
2023-02-08T18:21:19.500Z,102659.45
2023-02-08T18:31:25.622Z,102657.50
2023-02-08T18:41:30.660Z,102654.13
2023-02-08T18:51:34.477Z,102637.33
2023-02-08T19:01:40.045Z,102621.96
2023-02-08T19:11:45.613Z,102609.27
2023-02-08T19:21:50.990Z,102594.95
2023-02-08T19:32:45.871Z,102580.23
2023-02-08T19:43:25.209Z,102584.78
2023-02-08T19:54:38.712Z,102573.68
2023-02-08T20:05:06.203Z,102569.63
2023-02-08T20:26:43.615Z,102541.39
2023-02-08T20:37:05.660Z,102538.61
2023-02-08T20:47:11.377Z,102529.77
2023-02-08T20:57:15.626Z,102518.44
2023-02-08T21:07:21.207Z,102507.61
2023-02-08T21:17:24.858Z,102506.77
2023-02-08T21:27:29.163Z,102500.04
2023-02-08T21:37:34.146Z,102488.48
2023-02-08T21:47:38.979Z,102470.52
2023-02-08T21:57:42.607Z,102453.94
2023-02-08T22:07:51.490Z,102443.58
2023-02-08T22:17:57.865Z,102440.47
2023-02-08T22:28:03.314Z,102434.77
2023-02-08T22:38:07.015Z,102434.94
2023-02-08T22:48:16.470Z,102432.70
2023-02-08T22:58:22.340Z,102423.55
2023-02-08T23:08:26.563Z,102406.28
2023-02-08T23:18:30.079Z,102402.48
2023-02-08T23:28:34.888Z,102391.09
2023-02-08T23:38:42.104Z,102386.09
2023-02-08T23:48:47.868Z,102374.00
2023-02-08T23:58:54.509Z,102349.15
